Time;durP1;ratioP1;P1;durP2;ratioP2;P2;SDS_P1;SDS_P2;PMS_P1;PMS_P2;Temp;Humidity;BMP_temperature;BMP_pressure;BME280_temperature;BME280_humidity;BME280_pressure;Samples;Min_cycle;Max_cycle;Signal;HPM_P1;HPM_P2
2021/12/13 00:03:32;;;;;;;47.80;21.70;;;;;;;-4.71;86.20;100296.27;432136;1315;142711;-64
2021/12/13 00:13:41;;;;;;;39.00;20.60;;;;;;;-4.78;86.25;100287.48;432637;1315;142579;-63
2021/12/13 00:23:52;;;;;;;39.70;19.60;;;;;;;-4.81;86.21;100293.09;434011;1312;142492;-63
2021/12/13 00:34:21;;;;;;;39.10;20.80;;;;;;;-4.81;86.20;100293.95;430972;1310;142343;-58
2021/12/13 00:44:31;;;;;;;45.20;22.80;;;;;;;-4.78;86.37;100290.55;434739;1313;142239;-59
2021/12/13 00:54:41;;;;;;;45.50;23.40;;;;;;;-4.71;86.54;100298.16;434755;1309;145421;-59
2021/12/13 01:05:07;;;;;;;41.40;20.20;;;;;;;-4.65;86.51;100324.34;433459;1310;142989;-59
2021/12/13 01:15:19;;;;;;;42.10;23.10;;;;;;;-4.60;86.32;100325.59;434891;1309;162146;-59
2021/12/13 01:25:42;;;;;;;47.00;24.80;;;;;;;-4.57;86.44;100318.79;434844;1312;143142;-59
2021/12/13 01:35:54;;;;;;;46.70;21.00;;;;;;;-4.58;86.34;100328.68;431856;1310;143390;-60
2021/12/13 01:46:01;;;;;;;47.80;21.60;;;;;;;-4.59;86.25;100333.98;421718;1309;144224;-60
2021/12/13 01:56:24;;;;;;;36.20;19.20;;;;;;;-4.63;86.15;100313.26;434801;1312;199179;-59
2021/12/13 02:06:37;;;;;;;39.50;18.50;;;;;;;-4.76;86.25;100303.56;434578;1310;143202;-60
2021/12/13 02:16:58;;;;;;;43.70;20.30;;;;;;;-4.87;86.15;100307.71;433575;1306;142119;-59
2021/12/13 02:27:07;;;;;;;44.70;20.70;;;;;;;-4.84;86.30;100313.56;434584;1310;142723;-60
2021/12/13 02:37:14;;;;;;;43.60;20.70;;;;;;;-4.87;86.06;100308.23;434340;1310;143568;-60
2021/12/13 02:47:25;;;;;;;35.90;17.40;;;;;;;-4.90;86.24;100309.90;434227;1312;142637;-59
2021/12/13 02:57:34;;;;;;;28.70;16.30;;;;;;;-4.95;86.02;100309.68;433028;1311;143469;-59
2021/12/13 03:07:44;;;;;;;38.20;19.40;;;;;;;-5.06;85.88;100308.71;425515;1309;141888;-58
2021/12/13 03:17:55;;;;;;;34.10;17.30;;;;;;;-5.26;85.88;100300.45;428753;1310;146162;-59
2021/12/13 03:28:20;;;;;;;31.30;16.70;;;;;;;-5.47;85.98;100299.17;422751;1310;194420;-58
2021/12/13 03:38:30;;;;;;;31.10;16.80;;;;;;;-5.59;86.05;100296.27;434358;1310;142915;-59
2021/12/13 03:48:38;;;;;;;32.90;19.00;;;;;;;-5.64;86.04;100300.83;426894;1309;142168;-59
2021/12/13 03:58:50;;;;;;;35.10;19.60;;;;;;;-5.67;85.96;100295.99;430294;1312;141940;-59
2021/12/13 04:08:58;;;;;;;33.90;20.00;;;;;;;-5.69;85.91;100300.58;428804;1312;142068;-59
2021/12/13 04:19:08;;;;;;;32.80;18.60;;;;;;;-5.77;85.96;100298.77;433546;1310;143576;-59
2021/12/13 04:29:19;;;;;;;34.40;19.80;;;;;;;-5.87;85.89;100295.91;432360;1307;143041;-58
2021/12/13 04:39:32;;;;;;;42.90;19.50;;;;;;;-5.94;85.87;100300.23;420456;1310;141663;-61
2021/12/13 04:49:41;;;;;;;36.90;21.00;;;;;;;-6.03;85.99;100309.66;432922;1309;143307;-60
2021/12/13 04:59:55;;;;;;;31.50;16.30;;;;;;;-6.14;85.89;100305.58;433796;1309;142255;-60
2021/12/13 05:10:02;;;;;;;31.30;18.50;;;;;;;-6.31;85.78;100300.03;433425;1312;142746;-58
2021/12/13 05:20:16;;;;;;;33.60;19.40;;;;;;;-6.38;85.81;100312.88;434174;1309;144176;-58
2021/12/13 05:30:24;;;;;;;37.30;21.30;;;;;;;-6.41;85.86;100324.91;433565;1309;144897;-60
2021/12/13 05:40:40;;;;;;;39.70;21.80;;;;;;;-6.42;85.81;100327.45;425989;1310;142190;-60
2021/12/13 05:50:49;;;;;;;40.90;22.60;;;;;;;-6.48;85.81;100323.27;426562;1312;146361;-58
2021/12/13 06:00:57;;;;;;;37.70;21.00;;;;;;;-6.54;85.89;100330.48;429416;1310;143439;-58
2021/12/13 06:11:09;;;;;;;36.60;19.50;;;;;;;-6.57;86.05;100340.48;435539;1309;142653;-59
2021/12/13 06:21:38;;;;;;;35.10;19.30;;;;;;;-6.38;86.04;100345.23;429962;1310;142953;-58
2021/12/13 06:31:47;;;;;;;40.00;20.60;;;;;;;-6.19;85.97;100356.11;434690;1311;142207;-58
2021/12/13 06:41:59;;;;;;;34.50;20.00;;;;;;;-5.97;85.93;100365.16;432939;1312;164970;-59
2021/12/13 06:52:08;;;;;;;42.40;22.70;;;;;;;-5.74;85.77;100369.59;433771;1313;142043;-59
2021/12/13 07:02:19;;;;;;;40.60;22.80;;;;;;;-5.50;85.56;100381.03;426751;1312;145910;-58
2021/12/13 07:12:31;;;;;;;43.70;25.60;;;;;;;-5.19;85.55;100382.13;432000;1310;195590;-59
2021/12/13 07:22:37;;;;;;;42.00;25.00;;;;;;;-4.97;85.17;100394.03;431507;1312;142205;-60
2021/12/13 07:32:47;;;;;;;35.10;21.80;;;;;;;-4.78;84.92;100401.42;427696;1312;142684;-59
2021/12/13 07:43:01;;;;;;;38.70;23.60;;;;;;;-4.69;84.53;100407.52;428153;1310;142917;-59
2021/12/13 07:53:12;;;;;;;40.10;22.40;;;;;;;-4.62;84.33;100415.45;435654;1306;143178;-60
2021/12/13 08:03:26;;;;;;;54.80;27.70;;;;;;;-4.42;84.11;100435.34;434502;1310;143799;-60
2021/12/13 08:13:33;;;;;;;40.00;24.60;;;;;;;-4.20;83.77;100431.27;432547;1307;142559;-60
2021/12/13 08:23:45;;;;;;;43.70;24.70;;;;;;;-3.66;83.65;100437.23;434220;1309;142576;-68
2021/12/13 08:33:54;;;;;;;42.70;21.90;;;;;;;-2.85;83.12;100443.91;434923;1306;144234;-63
2021/12/13 08:44:05;;;;;;;51.10;27.90;;;;;;;-2.43;82.46;100445.10;435433;1309;144708;-60
2021/12/13 08:54:15;;;;;;;50.50;26.90;;;;;;;-2.22;81.89;100446.19;433574;1309;142107;-60
2021/12/13 09:04:27;;;;;;;54.10;29.90;;;;;;;-2.16;81.68;100450.84;434221;1309;142031;-60
2021/12/13 09:14:43;;;;;;;53.70;28.10;;;;;;;-1.90;81.74;100438.70;435736;1309;142314;-65
2021/12/13 09:24:55;;;;;;;49.90;31.30;;;;;;;-1.42;81.46;100442.45;431882;1312;142339;-63
2021/12/13 09:35:24;;;;;;;53.00;32.30;;;;;;;-0.95;81.10;100445.83;435541;1309;142585;-63
2021/12/13 09:45:35;;;;;;;66.90;36.30;;;;;;;-0.58;80.52;100442.08;433150;1308;144427;-64
2021/12/13 09:55:47;;;;;;;58.90;35.30;;;;;;;-0.33;80.18;100442.29;434540;1308;142594;-59
2021/12/13 10:05:56;;;;;;;64.80;35.80;;;;;;;-0.07;79.72;100438.36;433803;1309;162027;-64
2021/12/13 10:16:08;;;;;;;61.90;37.00;;;;;;;0.14;79.48;100443.90;426851;1310;141443;-66
2021/12/13 10:26:16;;;;;;;60.60;38.20;;;;;;;0.30;79.02;100446.70;432872;1307;142561;-58
2021/12/13 10:36:22;;;;;;;73.20;40.00;;;;;;;0.26;78.88;100446.39;434719;1307;142061;-63
2021/12/13 10:46:32;;;;;;;63.90;40.40;;;;;;;0.42;79.11;100436.62;434140;1309;142103;-63
2021/12/13 10:56:42;;;;;;;61.90;39.30;;;;;;;0.54;78.66;100430.99;434150;1311;142522;-64
2021/12/13 11:06:48;;;;;;;66.20;38.90;;;;;;;0.44;78.36;100433.66;434687;1310;142541;-61
2021/12/13 11:16:57;;;;;;;71.90;43.30;;;;;;;0.43;78.87;100433.85;435287;1306;142290;-60
2021/12/13 11:27:10;;;;;;;71.30;43.60;;;;;;;0.75;78.95;100433.40;431458;1312;141427;-60
2021/12/13 11:37:46;;;;;;;75.30;47.40;;;;;;;1.05;78.75;100422.38;433421;1309;556309;-62
2021/12/13 11:48:18;;;;;;;82.30;50.80;;;;;;;0.97;78.31;100416.77;433285;1310;195432;-60
2021/12/13 11:58:49;;;;;;;82.20;46.80;;;;;;;1.01;78.37;100415.70;433696;1307;141766;-61
2021/12/13 12:09:21;;;;;;;80.90;46.20;;;;;;;1.21;78.36;100415.30;426346;1310;142899;-56
2021/12/13 12:19:30;;;;;;;87.00;49.60;;;;;;;1.28;78.23;100413.30;432850;1306;142203;-68
2021/12/13 12:29:40;;;;;;;97.90;58.60;;;;;;;1.11;77.94;100421.27;434399;1306;142047;-64
2021/12/13 12:40:18;;;;;;;89.20;51.80;;;;;;;0.79;78.09;100421.11;433722;1312;142118;-69
2021/12/13 12:50:28;;;;;;;87.50;50.30;;;;;;;0.52;78.53;100422.06;432655;1312;143601;-62
2021/12/13 13:00:34;;;;;;;89.80;53.20;;;;;;;0.36;78.91;100429.61;424518;1312;142336;-65
2021/12/13 13:10:49;;;;;;;89.60;51.00;;;;;;;0.32;79.05;100436.54;435492;1310;141750;-66
2021/12/13 13:21:02;;;;;;;93.20;52.90;;;;;;;0.01;79.01;100439.68;420233;1309;141741;-66
2021/12/13 13:31:14;;;;;;;93.00;53.00;;;;;;;-0.34;79.11;100437.31;433046;1309;142179;-66
2021/12/13 13:41:21;;;;;;;95.60;52.40;;;;;;;-0.64;79.50;100440.54;433501;1310;142036;-71
2021/12/13 13:51:30;;;;;;;94.20;49.20;;;;;;;-0.82;79.48;100439.94;432538;1310;143021;-70
2021/12/13 14:01:42;;;;;;;95.70;49.00;;;;;;;-0.89;79.98;100451.64;422480;1311;141629;-66
2021/12/13 14:11:52;;;;;;;86.60;52.50;;;;;;;-1.02;79.89;100466.81;430542;1312;142188;-77
2021/12/13 14:21:59;;;;;;;108.40;59.50;;;;;;;-1.19;79.98;100472.67;424554;1306;142498;-68
2021/12/13 14:32:10;;;;;;;99.90;53.60;;;;;;;-1.33;80.44;100485.58;434796;1310;142143;-68
2021/12/13 14:42:19;;;;;;;114.90;54.00;;;;;;;-1.51;80.20;100489.02;435007;1312;143264;-67
2021/12/13 14:52:29;;;;;;;108.60;57.60;;;;;;;-1.62;80.60;100493.81;434924;1313;143024;-60
2021/12/13 15:02:42;;;;;;;102.60;54.90;;;;;;;-1.71;80.73;100501.02;435512;1310;142560;-69
2021/12/13 15:12:50;;;;;;;98.20;53.50;;;;;;;-1.78;80.87;100507.70;434918;1310;143405;-70
2021/12/13 15:22:59;;;;;;;106.00;55.50;;;;;;;-1.76;81.16;100520.76;435557;1310;142266;-71
2021/12/13 15:33:07;;;;;;;103.70;58.50;;;;;;;-1.74;81.07;100531.05;433988;1312;195910;-65
2021/12/13 15:43:18;;;;;;;105.30;57.60;;;;;;;-1.80;80.84;100537.91;434271;1309;142206;-61
2021/12/13 15:53:25;;;;;;;99.40;56.70;;;;;;;-1.91;80.99;100537.55;434180;1310;142840;-62
2021/12/13 16:03:31;;;;;;;110.30;57.90;;;;;;;-1.99;81.08;100543.02;434994;1314;144056;-61
2021/12/13 16:13:38;;;;;;;103.00;56.90;;;;;;;-2.01;81.18;100555.02;435598;1314;143495;-62
2021/12/13 16:23:54;;;;;;;105.40;55.50;;;;;;;-1.96;81.20;100562.08;427120;1312;142689;-61
2021/12/13 16:34:09;;;;;;;106.30;58.10;;;;;;;-1.93;81.37;100558.83;432216;1314;142995;-61
2021/12/13 16:44:19;;;;;;;96.50;57.70;;;;;;;-1.94;81.35;100562.09;434441;1315;144178;-62
2021/12/13 16:54:28;;;;;;;105.50;58.10;;;;;;;-1.97;81.65;100559.67;434426;1309;141899;-62
2021/12/13 17:04:41;;;;;;;102.20;58.20;;;;;;;-1.90;81.52;100554.55;434288;1311;142521;-61
2021/12/13 17:14:53;;;;;;;119.10;63.00;;;;;;;-1.94;81.57;100545.27;420611;1310;142315;-67
2021/12/13 17:25:02;;;;;;;114.60;58.40;;;;;;;-1.95;81.69;100552.83;435477;1314;142296;-68
2021/12/13 17:35:10;;;;;;;122.20;68.10;;;;;;;-1.98;81.62;100558.46;432193;1311;142996;-67
2021/12/13 17:45:22;;;;;;;121.30;66.30;;;;;;;-1.85;81.91;100561.94;432773;1315;141886;-68
2021/12/13 17:55:32;;;;;;;118.90;70.80;;;;;;;-1.84;81.78;100559.02;429165;1310;142621;-69
2021/12/13 18:05:39;;;;;;;109.10;66.00;;;;;;;-1.82;81.85;100571.05;422000;1310;144298;-68
2021/12/13 18:15:48;;;;;;;112.50;65.30;;;;;;;-1.84;81.92;100577.90;434184;1312;199517;-68
2021/12/13 18:25:59;;;;;;;112.30;64.40;;;;;;;-1.94;81.90;100574.95;427573;1310;141802;-67
2021/12/13 18:36:09;;;;;;;105.50;62.20;;;;;;;-1.97;82.22;100579.75;425843;1310;142482;-69
2021/12/13 18:46:29;;;;;;;121.30;72.40;;;;;;;-1.97;82.27;100581.98;434418;1308;142278;-67
2021/12/13 18:56:38;;;;;;;118.80;64.50;;;;;;;-1.93;82.21;100588.34;434846;1311;142639;-68
2021/12/13 19:06:48;;;;;;;120.20;68.60;;;;;;;-1.94;82.11;100584.73;433462;1310;143183;-68
2021/12/13 19:17:01;;;;;;;118.70;64.60;;;;;;;-2.05;81.93;100585.05;426642;1313;151381;-69
2021/12/13 19:27:18;;;;;;;115.90;66.50;;;;;;;-2.07;82.25;100581.77;433450;1312;142160;-71
2021/12/13 19:37:43;;;;;;;112.20;65.00;;;;;;;-2.12;82.35;100590.16;428042;1312;295386;-70
2021/12/13 19:47:58;;;;;;;112.20;64.20;;;;;;;-2.09;82.32;100598.77;421652;1308;142945;-71
2021/12/13 19:58:09;;;;;;;121.00;63.30;;;;;;;-2.05;82.44;100598.95;423031;1306;141671;-63
2021/12/13 20:08:27;;;;;;;122.70;64.30;;;;;;;-2.12;82.53;100600.80;427231;1310;142640;-63
2021/12/13 20:18:39;;;;;;;121.90;69.10;;;;;;;-2.14;82.63;100597.36;434835;1309;143313;-62
2021/12/13 20:28:54;;;;;;;127.30;67.50;;;;;;;-2.08;82.87;100594.14;435588;1307;143896;-62
2021/12/13 20:39:05;;;;;;;126.70;69.60;;;;;;;-1.99;83.02;100592.95;434055;1312;145572;-64
2021/12/13 20:49:17;;;;;;;130.90;74.30;;;;;;;-1.92;83.06;100596.06;435555;1310;141635;-63
2021/12/13 20:59:29;;;;;;;129.80;74.30;;;;;;;-1.80;82.88;100596.45;435397;1310;141839;-62
2021/12/13 21:09:39;;;;;;;137.20;76.40;;;;;;;-1.70;83.04;100595.80;434810;1309;144794;-63
2021/12/13 21:19:52;;;;;;;149.80;78.60;;;;;;;-1.67;83.09;100595.63;435478;1307;142714;-64
2021/12/13 21:30:04;;;;;;;145.40;78.00;;;;;;;-1.57;83.06;100594.62;433893;1312;142175;-63
2021/12/13 21:40:17;;;;;;;148.00;76.90;;;;;;;-1.49;83.10;100590.00;435633;1307;142875;-63
2021/12/13 21:50:28;;;;;;;134.90;76.40;;;;;;;-1.42;83.01;100590.00;427658;1310;142300;-64
2021/12/13 22:00:39;;;;;;;132.50;76.00;;;;;;;-1.45;83.08;100584.17;420731;1308;142480;-65
2021/12/13 22:10:50;;;;;;;125.70;71.60;;;;;;;-1.50;83.03;100582.96;419908;1311;142125;-63
2021/12/13 22:21:01;;;;;;;138.30;78.10;;;;;;;-1.57;83.20;100586.05;417705;1309;141930;-63
2021/12/13 22:31:10;;;;;;;141.40;77.10;;;;;;;-1.60;83.44;100586.89;419041;1310;142297;-65
2021/12/13 22:41:22;;;;;;;142.20;79.70;;;;;;;-1.62;83.57;100580.19;434467;1310;142133;-63
2021/12/13 22:51:31;;;;;;;158.90;83.90;;;;;;;-1.58;83.44;100577.28;434789;1306;142913;-61
2021/12/13 23:01:41;;;;;;;144.80;79.30;;;;;;;-1.46;83.67;100580.22;435284;1308;142182;-61
2021/12/13 23:11:51;;;;;;;144.40;82.60;;;;;;;-1.37;83.63;100579.54;435684;1308;141697;-61
2021/12/13 23:22:00;;;;;;;145.00;82.60;;;;;;;-1.33;83.66;100579.89;432144;1310;153644;-62
2021/12/13 23:32:11;;;;;;;138.20;77.80;;;;;;;-1.32;83.64;100569.41;434153;1310;141956;-61
2021/12/13 23:45:34;;;;;;;135.60;76.30;;;;;;;-1.33;83.74;100566.14;426695;1312;142730;-62
2021/12/13 23:52:53;;;;;;;134.90;76.20;;;;;;;-1.29;83.87;100553.95;422821;1311;142342;-61
